createdAt,value
2018-09-28T00:00:18.484Z,12.50
2018-09-28T00:01:22.083Z,12.50
2018-09-28T00:02:25.790Z,12.50
2018-09-28T00:03:29.446Z,12.40
2018-09-28T00:04:33.102Z,12.50
2018-09-28T00:05:36.896Z,12.50
2018-09-28T00:06:40.500Z,12.50
2018-09-28T00:07:44.211Z,12.40
2018-09-28T00:08:47.950Z,12.40
2018-09-28T00:09:51.531Z,12.50
2018-09-28T00:10:55.124Z,12.40
2018-09-28T00:11:58.730Z,12.40
2018-09-28T00:13:02.402Z,12.40
2018-09-28T00:14:06.201Z,12.40
2018-09-28T00:15:09.832Z,12.40
2018-09-28T00:16:13.402Z,12.40
2018-09-28T00:17:17.078Z,12.20
2018-09-28T00:18:20.750Z,12.30
2018-09-28T00:19:24.435Z,12.20
2018-09-28T00:20:28.133Z,12.20
2018-09-28T00:21:31.786Z,12.20
2018-09-28T00:22:35.423Z,12.20
2018-09-28T00:23:39.238Z,12.20
2018-09-28T00:24:42.960Z,12.20
2018-09-28T00:25:46.855Z,12.20
2018-09-28T00:26:50.638Z,12.20
2018-09-28T00:27:54.368Z,12.20
2018-09-28T00:28:58.099Z,12.20
2018-09-28T00:30:01.746Z,12.30
2018-09-28T00:31:05.506Z,12.20
2018-09-28T00:32:09.158Z,12.20
2018-09-28T00:33:12.882Z,12.20
2018-09-28T00:34:16.639Z,12.20
2018-09-28T00:35:20.424Z,12.20
2018-09-28T00:36:24.227Z,12.20
2018-09-28T00:37:28.007Z,12.10
2018-09-28T00:38:31.675Z,12.10
2018-09-28T00:39:35.383Z,12.10
2018-09-28T00:40:39.099Z,12.10
2018-09-28T00:41:42.733Z,12.10
2018-09-28T00:42:46.375Z,12.10
2018-09-28T00:43:50.067Z,12.10
2018-09-28T00:44:53.806Z,12.10
2018-09-28T00:45:57.493Z,12.10
2018-09-28T00:47:01.163Z,12.00
2018-09-28T00:48:04.801Z,12.00
2018-09-28T00:49:08.554Z,11.90
2018-09-28T00:50:12.221Z,11.90
2018-09-28T00:51:15.842Z,11.80
2018-09-28T00:52:19.482Z,11.80
2018-09-28T00:53:23.182Z,11.70
2018-09-28T00:54:26.868Z,11.70
2018-09-28T00:55:30.479Z,11.70
2018-09-28T00:56:34.151Z,11.70
2018-09-28T00:57:37.747Z,11.70
2018-09-28T00:58:41.339Z,11.70
2018-09-28T00:59:44.953Z,11.70
2018-09-28T01:00:48.635Z,11.60
2018-09-28T01:01:52.259Z,11.60
2018-09-28T01:02:55.854Z,11.60
2018-09-28T01:03:59.633Z,11.50
2018-09-28T01:05:03.316Z,11.40
2018-09-28T01:06:06.998Z,11.40
2018-09-28T01:07:10.630Z,11.30
2018-09-28T01:08:14.283Z,11.30
2018-09-28T01:09:17.963Z,11.30
2018-09-28T01:10:21.728Z,11.30
2018-09-28T01:11:25.489Z,11.30
2018-09-28T01:12:29.140Z,11.30
2018-09-28T01:13:32.866Z,11.40
2018-09-28T01:14:36.502Z,11.40
2018-09-28T01:15:40.350Z,11.50
2018-09-28T01:16:43.998Z,11.50
2018-09-28T01:17:47.671Z,11.60
2018-09-28T01:18:51.316Z,11.60
2018-09-28T01:19:54.915Z,11.60
2018-09-28T01:20:58.477Z,11.60
2018-09-28T01:22:02.111Z,11.60
2018-09-28T01:23:05.795Z,11.60
2018-09-28T01:24:09.437Z,11.60
2018-09-28T01:25:13.037Z,11.60
2018-09-28T01:26:16.630Z,11.60
2018-09-28T01:27:20.223Z,11.60
2018-09-28T01:28:23.844Z,11.50
2018-09-28T01:29:27.465Z,11.50
2018-09-28T01:30:31.586Z,11.50
2018-09-28T01:31:35.251Z,11.50
2018-09-28T01:32:38.937Z,11.50
2018-09-28T01:33:42.604Z,11.50
2018-09-28T01:34:46.264Z,11.60
2018-09-28T01:35:49.884Z,11.60
2018-09-28T01:36:53.659Z,11.60
2018-09-28T01:37:57.228Z,11.60
2018-09-28T01:39:00.992Z,11.70
2018-09-28T01:40:04.677Z,11.70
2018-09-28T01:41:08.310Z,11.70
2018-09-28T01:42:12.026Z,11.70
2018-09-28T01:43:15.662Z,11.70
2018-09-28T01:44:19.365Z,11.70
2018-09-28T01:45:23.136Z,11.60
2018-09-28T01:46:26.714Z,11.60
2018-09-28T01:47:30.317Z,11.60
2018-09-28T01:48:34.044Z,11.50
2018-09-28T01:49:37.676Z,11.50
2018-09-28T01:50:41.405Z,11.40
2018-09-28T01:51:45.043Z,11.30
2018-09-28T01:52:48.744Z,11.30
2018-09-28T01:53:52.380Z,11.30
2018-09-28T01:54:56.077Z,11.30
2018-09-28T01:55:59.869Z,11.30
2018-09-28T01:57:03.625Z,11.20
2018-09-28T01:58:07.355Z,11.30
2018-09-28T01:59:11.004Z,11.20
2018-09-28T02:00:14.720Z,11.20
2018-09-28T02:01:18.363Z,11.20
2018-09-28T02:02:22.008Z,11.20
2018-09-28T02:03:25.850Z,11.10
2018-09-28T02:04:29.495Z,11.10
2018-09-28T02:05:33.421Z,11.00
2018-09-28T02:06:37.061Z,11.00
2018-09-28T02:07:40.702Z,11.10
2018-09-28T02:08:44.479Z,11.10
2018-09-28T02:09:48.345Z,11.00
2018-09-28T02:10:52.066Z,11.00
2018-09-28T02:11:55.716Z,11.00
2018-09-28T02:12:59.383Z,10.90
2018-09-28T02:14:03.066Z,10.90
2018-09-28T02:15:06.707Z,10.90
2018-09-28T02:16:10.350Z,10.90
2018-09-28T02:17:14.083Z,10.80
2018-09-28T02:18:17.708Z,10.80
2018-09-28T02:19:21.344Z,10.80
2018-09-28T02:20:24.986Z,10.80
2018-09-28T02:21:28.646Z,10.70
2018-09-28T02:22:32.279Z,10.70
2018-09-28T02:23:35.874Z,10.70
2018-09-28T02:24:39.478Z,10.70
2018-09-28T02:25:43.228Z,10.70
2018-09-28T02:26:46.841Z,10.80
2018-09-28T02:27:50.466Z,10.70
2018-09-28T02:28:54.114Z,10.70
2018-09-28T02:29:57.674Z,10.70
2018-09-28T02:31:01.306Z,10.70
2018-09-28T02:32:05.143Z,10.60
2018-09-28T02:33:08.803Z,10.70
2018-09-28T02:34:12.360Z,10.60
2018-09-28T02:35:15.999Z,10.60
2018-09-28T02:36:19.608Z,10.70
2018-09-28T02:37:23.256Z,10.70
2018-09-28T02:38:26.839Z,10.70
2018-09-28T02:39:30.383Z,10.60
2018-09-28T02:40:33.990Z,10.60
2018-09-28T02:41:37.581Z,10.60
2018-09-28T02:42:41.262Z,10.60
2018-09-28T02:43:44.909Z,10.60
2018-09-28T02:44:48.639Z,10.60
2018-09-28T02:45:52.317Z,10.60
2018-09-28T02:46:55.982Z,10.60
2018-09-28T02:47:59.758Z,10.60
2018-09-28T02:49:03.396Z,10.50
2018-09-28T02:50:07.497Z,10.50
2018-09-28T02:51:11.137Z,10.40
2018-09-28T02:52:14.781Z,10.40
2018-09-28T02:53:18.955Z,10.20
2018-09-28T02:54:22.734Z,10.20
2018-09-28T02:55:26.707Z,10.20
2018-09-28T02:56:30.252Z,10.20
2018-09-28T02:57:33.789Z,10.30
2018-09-28T02:58:37.491Z,10.30
2018-09-28T02:59:41.102Z,10.20
2018-09-28T03:00:45.276Z,10.10
2018-09-28T03:01:48.880Z,10.10
2018-09-28T03:02:52.633Z,10.00
2018-09-28T03:03:56.252Z,10.00
2018-09-28T03:04:59.838Z,10.00
2018-09-28T03:06:03.492Z,10.00
2018-09-28T03:07:07.115Z,10.00
2018-09-28T03:08:11.587Z,10.00
2018-09-28T03:09:15.189Z,10.00
2018-09-28T03:10:18.817Z,10.00
2018-09-28T03:11:22.406Z,10.10
2018-09-28T03:12:25.979Z,10.10
2018-09-28T03:13:29.611Z,10.10
2018-09-28T03:14:33.201Z,10.20
2018-09-28T03:15:37.232Z,10.20
2018-09-28T03:16:40.976Z,10.20
2018-09-28T03:17:44.615Z,10.20
2018-09-28T03:18:48.233Z,10.20
2018-09-28T03:19:52.029Z,10.20
2018-09-28T03:20:55.661Z,10.20
2018-09-28T03:21:59.332Z,10.30
2018-09-28T03:23:02.975Z,10.30
2018-09-28T03:24:06.692Z,10.30
2018-09-28T03:25:10.373Z,10.30
2018-09-28T03:26:14.127Z,10.30
2018-09-28T03:27:17.777Z,10.20
2018-09-28T03:28:21.632Z,10.20
2018-09-28T03:29:25.279Z,10.20
2018-09-28T03:30:28.828Z,10.10
2018-09-28T03:31:32.450Z,10.10
2018-09-28T03:32:36.162Z,10.00
2018-09-28T03:33:39.853Z,10.00
2018-09-28T03:34:43.636Z,10.10
2018-09-28T03:35:47.329Z,9.90
2018-09-28T03:36:50.867Z,9.80
2018-09-28T03:37:54.611Z,9.80
2018-09-28T03:38:58.144Z,9.90
2018-09-28T03:40:01.722Z,9.90
2018-09-28T03:41:05.330Z,9.90
2018-09-28T03:42:09.041Z,9.90
2018-09-28T03:43:12.644Z,9.90
2018-09-28T03:44:16.267Z,9.90
2018-09-28T03:45:19.884Z,10.00
2018-09-28T03:46:23.579Z,10.00
2018-09-28T03:47:27.543Z,10.00
2018-09-28T03:48:31.596Z,10.00
2018-09-28T03:49:36.054Z,10.00
2018-09-28T03:50:40.225Z,10.00
2018-09-28T03:51:44.271Z,10.00
2018-09-28T03:52:48.686Z,10.00
2018-09-28T03:53:53.011Z,10.00
2018-09-28T03:54:56.992Z,9.90
2018-09-28T03:56:02.347Z,9.90
2018-09-28T03:57:06.518Z,10.00
2018-09-28T03:58:10.015Z,9.90
2018-09-28T03:59:13.606Z,9.80
2018-09-28T04:00:17.191Z,9.90
2018-09-28T04:01:20.667Z,9.90
2018-09-28T04:02:24.540Z,9.90
2018-09-28T04:03:28.282Z,9.90
2018-09-28T04:04:32.295Z,9.80
2018-09-28T04:05:36.161Z,9.70
2018-09-28T04:06:40.444Z,9.70
2018-09-28T04:07:44.378Z,9.70
2018-09-28T04:08:48.637Z,9.70
2018-09-28T04:09:52.158Z,9.70
2018-09-28T04:10:55.774Z,9.60
2018-09-28T04:11:59.455Z,9.60
2018-09-28T04:13:03.008Z,9.60
2018-09-28T04:14:06.659Z,9.60
2018-09-28T04:15:10.324Z,9.60
2018-09-28T04:16:13.859Z,9.50
2018-09-28T04:17:17.412Z,9.60
2018-09-28T04:18:20.928Z,9.60
2018-09-28T04:19:24.427Z,9.60
2018-09-28T04:20:27.994Z,9.60
2018-09-28T04:21:31.566Z,9.50
2018-09-28T04:22:35.131Z,9.60
2018-09-28T04:23:38.686Z,9.60
2018-09-28T04:24:42.234Z,9.60
2018-09-28T04:25:45.757Z,9.60
2018-09-28T04:26:49.279Z,9.60
2018-09-28T04:27:52.849Z,9.60
2018-09-28T04:28:56.336Z,9.60
2018-09-28T04:29:59.842Z,9.60
2018-09-28T04:31:03.358Z,9.50
2018-09-28T04:32:06.831Z,9.50
2018-09-28T04:33:10.386Z,9.50
2018-09-28T04:34:13.935Z,9.50
2018-09-28T04:35:17.464Z,9.60
2018-09-28T04:36:21.181Z,9.60
2018-09-28T04:37:24.820Z,9.60
2018-09-28T04:38:28.406Z,9.60
2018-09-28T04:39:31.931Z,9.60
2018-09-28T04:40:35.436Z,9.60
2018-09-28T04:41:38.952Z,9.60
2018-09-28T04:42:42.448Z,9.60
2018-09-28T04:43:45.967Z,9.60
2018-09-28T04:44:49.523Z,9.60
2018-09-28T04:45:52.971Z,9.50
2018-09-28T04:46:56.484Z,9.60
2018-09-28T04:47:59.994Z,9.60
2018-09-28T04:49:03.488Z,9.60
2018-09-28T04:50:07.087Z,9.60
2018-09-28T04:51:10.640Z,9.60
2018-09-28T04:52:14.194Z,9.50
2018-09-28T04:53:17.684Z,9.60
2018-09-28T04:54:21.214Z,9.60
2018-09-28T04:55:24.756Z,9.60
2018-09-28T04:56:28.475Z,9.60
2018-09-28T04:57:32.001Z,9.60
2018-09-28T04:58:35.476Z,9.60
2018-09-28T04:59:38.963Z,9.50
2018-09-28T05:00:42.490Z,9.50
2018-09-28T05:01:46.082Z,9.30
2018-09-28T05:02:49.714Z,9.40
2018-09-28T05:03:53.322Z,9.40
2018-09-28T05:04:57.006Z,9.40
2018-09-28T05:06:00.591Z,9.50
2018-09-28T05:07:04.151Z,9.60
2018-09-28T05:08:07.832Z,9.60
2018-09-28T05:09:13.310Z,9.60
2018-09-28T05:10:16.925Z,9.70
2018-09-28T05:11:20.998Z,9.70
2018-09-28T05:12:24.767Z,9.80
2018-09-28T05:13:28.503Z,9.80
2018-09-28T05:14:32.042Z,9.80
2018-09-28T05:15:35.762Z,9.90
2018-09-28T05:16:39.880Z,9.90
2018-09-28T05:17:43.609Z,10.00
2018-09-28T05:18:47.320Z,10.10
2018-09-28T05:19:50.980Z,10.10
2018-09-28T05:20:54.712Z,10.10
2018-09-28T05:21:58.463Z,10.20
2018-09-28T05:23:02.311Z,10.20
2018-09-28T05:24:05.911Z,10.20
2018-09-28T05:25:09.752Z,10.30
2018-09-28T05:26:13.623Z,10.30
2018-09-28T05:27:17.331Z,10.30
2018-09-28T05:28:21.060Z,10.40
2018-09-28T05:29:24.770Z,10.40
2018-09-28T05:30:28.512Z,10.40
2018-09-28T05:31:32.448Z,10.30
2018-09-28T05:32:36.213Z,10.30
2018-09-28T05:33:39.876Z,10.40
2018-09-28T05:34:43.628Z,10.40
2018-09-28T05:35:47.280Z,10.50
2018-09-28T05:36:51.037Z,10.50
2018-09-28T05:37:54.915Z,10.60
2018-09-28T05:38:58.657Z,10.70
2018-09-28T05:40:02.399Z,10.70
2018-09-28T05:41:06.960Z,10.70
2018-09-28T05:42:10.692Z,10.70
2018-09-28T05:43:14.450Z,10.70
2018-09-28T05:44:18.225Z,10.70
2018-09-28T05:45:21.861Z,10.70
2018-09-28T05:46:25.673Z,10.70
2018-09-28T05:47:29.327Z,10.80
2018-09-28T05:48:32.978Z,10.80
2018-09-28T05:49:36.743Z,10.70
2018-09-28T05:50:40.491Z,10.70
2018-09-28T05:51:44.285Z,10.70
2018-09-28T05:52:48.169Z,10.60
2018-09-28T05:53:51.896Z,10.60
2018-09-28T05:54:55.744Z,10.60
2018-09-28T05:55:59.505Z,10.60
2018-09-28T05:57:03.340Z,10.50
2018-09-28T05:58:12.577Z,10.50
2018-09-28T05:59:21.709Z,10.50
2018-09-28T06:00:30.674Z,10.60
2018-09-28T06:01:39.686Z,10.60
2018-09-28T06:02:48.894Z,10.70
2018-09-28T06:03:57.951Z,10.70
2018-09-28T06:05:07.053Z,10.80
2018-09-28T06:06:10.839Z,10.80
2018-09-28T06:07:14.729Z,10.80
2018-09-28T06:08:18.488Z,10.90
2018-09-28T06:09:22.213Z,10.90
2018-09-28T06:10:26.014Z,10.90
2018-09-28T06:11:29.771Z,11.00
2018-09-28T06:12:33.571Z,11.00
2018-09-28T06:13:37.388Z,10.90
2018-09-28T06:14:41.220Z,10.90
2018-09-28T06:15:45.039Z,11.00
2018-09-28T06:16:48.929Z,11.00
2018-09-28T06:17:52.767Z,11.00
2018-09-28T06:18:56.459Z,11.00
2018-09-28T06:20:00.289Z,11.00
2018-09-28T06:21:04.052Z,11.10
2018-09-28T06:22:07.880Z,11.20
2018-09-28T06:23:11.605Z,11.20
2018-09-28T06:24:15.580Z,11.20
2018-09-28T06:25:19.308Z,11.20
2018-09-28T06:26:23.024Z,11.20
2018-09-28T06:27:26.781Z,11.20
2018-09-28T06:28:30.569Z,11.20
2018-09-28T06:29:34.322Z,11.30
2018-09-28T06:30:38.095Z,11.20
2018-09-28T06:31:41.820Z,11.30
2018-09-28T06:32:45.703Z,11.30
2018-09-28T06:33:49.459Z,11.30
2018-09-28T06:34:53.289Z,11.30
2018-09-28T06:35:57.191Z,11.30
2018-09-28T06:37:01.663Z,11.40
2018-09-28T06:38:05.478Z,11.40
2018-09-28T06:39:09.333Z,11.50
2018-09-28T06:40:13.103Z,11.50
2018-09-28T06:41:16.966Z,11.60
2018-09-28T06:42:23.501Z,11.50
2018-09-28T06:43:27.326Z,11.60
2018-09-28T06:44:31.122Z,11.70
2018-09-28T06:45:34.963Z,11.60
2018-09-28T06:46:38.979Z,11.60
2018-09-28T06:47:42.885Z,11.60
2018-09-28T06:48:47.778Z,11.70
2018-09-28T06:49:51.655Z,11.70
2018-09-28T06:50:55.291Z,11.80
2018-09-28T06:51:59.029Z,11.80
2018-09-28T06:53:02.670Z,11.80
2018-09-28T06:54:06.408Z,11.90
2018-09-28T06:55:10.155Z,11.90
2018-09-28T06:56:13.711Z,11.90
2018-09-28T06:57:17.922Z,12.00
2018-09-28T06:58:23.671Z,12.10
2018-09-28T06:59:27.308Z,12.00
2018-09-28T07:00:31.103Z,12.10
2018-09-28T07:01:35.196Z,12.10
2018-09-28T07:02:38.986Z,12.00
2018-09-28T07:03:42.654Z,12.00
2018-09-28T07:04:46.364Z,12.00
2018-09-28T07:05:50.083Z,11.90
2018-09-28T07:06:54.621Z,12.00
2018-09-28T07:07:58.958Z,11.90
2018-09-28T07:09:02.736Z,12.00
2018-09-28T07:10:06.406Z,12.00
2018-09-28T07:11:09.900Z,12.00
2018-09-28T07:12:14.451Z,12.00
2018-09-28T07:13:19.174Z,12.00
2018-09-28T07:14:22.820Z,12.00
2018-09-28T07:15:26.426Z,12.00
2018-09-28T07:16:29.995Z,12.00
2018-09-28T07:17:33.578Z,12.00
2018-09-28T07:18:37.270Z,12.00
2018-09-28T07:19:41.633Z,12.10
2018-09-28T07:20:45.923Z,12.10
2018-09-28T07:21:49.693Z,12.10
2018-09-28T07:22:53.587Z,12.10
2018-09-28T07:23:57.355Z,12.00
2018-09-28T07:25:00.930Z,12.00
2018-09-28T07:26:04.589Z,12.00
2018-09-28T07:27:08.211Z,12.00
2018-09-28T07:28:11.840Z,12.00
2018-09-28T07:29:15.488Z,11.90
2018-09-28T07:30:19.155Z,12.00
2018-09-28T07:31:22.668Z,12.00
2018-09-28T07:32:26.161Z,12.00
2018-09-28T07:33:29.800Z,12.00
2018-09-28T07:34:33.399Z,12.00
2018-09-28T07:35:37.003Z,12.00
2018-09-28T07:36:40.654Z,12.00
2018-09-28T07:37:44.048Z,12.00
2018-09-28T07:38:47.535Z,12.00
2018-09-28T07:39:51.130Z,12.00
2018-09-28T07:40:54.640Z,12.00
2018-09-28T07:41:58.351Z,12.10
2018-09-28T07:43:01.905Z,12.10
2018-09-28T07:44:05.476Z,12.00
2018-09-28T07:45:09.037Z,12.10
2018-09-28T07:46:12.603Z,12.10
2018-09-28T07:47:16.118Z,12.10
2018-09-28T07:48:19.726Z,12.10
2018-09-28T07:49:23.283Z,12.10
2018-09-28T07:50:26.809Z,12.10
2018-09-28T07:51:30.458Z,12.10
2018-09-28T07:52:34.016Z,12.00
2018-09-28T07:53:37.531Z,12.00
2018-09-28T07:54:41.053Z,12.00
2018-09-28T07:55:44.584Z,12.00
2018-09-28T07:56:48.163Z,12.00
2018-09-28T07:57:51.727Z,12.00
2018-09-28T07:58:55.275Z,12.00
2018-09-28T07:59:58.918Z,11.80
2018-09-28T08:01:02.439Z,11.80
2018-09-28T08:02:05.977Z,11.90
2018-09-28T08:03:09.606Z,12.00
2018-09-28T08:04:13.177Z,11.90
2018-09-28T08:05:16.698Z,12.00
2018-09-28T08:06:20.256Z,11.90
2018-09-28T08:07:23.856Z,12.00
2018-09-28T08:08:27.336Z,11.90
2018-09-28T08:09:30.899Z,11.80
2018-09-28T08:10:34.446Z,11.80
2018-09-28T08:11:37.994Z,11.70
2018-09-28T08:12:41.715Z,11.80
2018-09-28T08:13:45.319Z,11.80
2018-09-28T08:14:48.858Z,11.80
2018-09-28T08:15:52.498Z,11.90
2018-09-28T08:16:56.012Z,11.90
2018-09-28T08:17:59.602Z,11.90
2018-09-28T08:19:03.077Z,11.90
2018-09-28T08:20:06.659Z,11.90
2018-09-28T08:21:10.299Z,12.00
2018-09-28T08:22:13.868Z,12.00
2018-09-28T08:23:17.620Z,12.00
2018-09-28T08:24:21.247Z,12.00
2018-09-28T08:25:24.803Z,12.00
2018-09-28T08:26:28.290Z,12.10
2018-09-28T08:27:31.880Z,12.10
2018-09-28T08:28:35.409Z,12.20
2018-09-28T08:29:38.943Z,12.20
2018-09-28T08:30:42.568Z,12.20
2018-09-28T08:31:46.116Z,12.30
2018-09-28T08:32:49.718Z,12.40
2018-09-28T08:33:53.277Z,12.30
2018-09-28T08:34:56.917Z,12.40
2018-09-28T08:36:00.555Z,12.40
2018-09-28T08:37:04.116Z,12.40
2018-09-28T08:38:07.723Z,12.50
2018-09-28T08:39:11.238Z,12.60
2018-09-28T08:40:14.722Z,12.70
2018-09-28T08:41:18.331Z,12.70
2018-09-28T08:42:21.878Z,12.70
2018-09-28T08:43:25.484Z,12.70
2018-09-28T08:44:29.016Z,12.70
2018-09-28T08:45:32.660Z,12.60
2018-09-28T08:46:36.254Z,12.50
2018-09-28T08:47:39.823Z,12.60
2018-09-28T08:48:43.382Z,12.50
2018-09-28T08:49:46.863Z,12.60
2018-09-28T08:50:50.488Z,12.50
2018-09-28T08:51:54.085Z,12.50
2018-09-28T08:52:57.718Z,12.60
2018-09-28T08:54:01.327Z,12.60
2018-09-28T08:55:04.939Z,12.60
2018-09-28T08:56:08.654Z,12.70
2018-09-28T08:57:12.215Z,12.80
2018-09-28T08:58:15.779Z,12.80
2018-09-28T08:59:19.301Z,12.90
2018-09-28T09:00:23.311Z,12.90
2018-09-28T09:01:26.882Z,13.00
2018-09-28T09:02:30.390Z,13.00
2018-09-28T09:03:33.919Z,12.90
2018-09-28T09:04:37.435Z,13.00
2018-09-28T09:05:41.120Z,13.00
2018-09-28T09:06:44.680Z,13.10
2018-09-28T09:07:48.294Z,13.20
2018-09-28T09:08:51.871Z,13.20
2018-09-28T09:09:55.348Z,13.20
2018-09-28T09:10:58.945Z,13.30
2018-09-28T09:12:02.496Z,13.30
2018-09-28T09:13:06.061Z,13.40
2018-09-28T09:14:09.586Z,13.40
2018-09-28T09:15:13.089Z,13.40
2018-09-28T09:16:16.621Z,13.50
2018-09-28T09:17:20.238Z,13.50
2018-09-28T09:18:24.382Z,13.60
2018-09-28T09:19:27.921Z,13.60
2018-09-28T09:20:31.458Z,13.50
2018-09-28T09:21:35.005Z,13.50
2018-09-28T09:22:38.555Z,13.50
2018-09-28T09:23:42.055Z,13.50
2018-09-28T09:24:45.583Z,13.50
2018-09-28T09:25:49.079Z,13.50
2018-09-28T09:26:52.627Z,13.50
2018-09-28T09:27:56.199Z,13.50
2018-09-28T09:28:59.718Z,13.60
2018-09-28T09:30:03.310Z,13.60
2018-09-28T09:31:07.133Z,13.60
2018-09-28T09:32:10.728Z,13.60
2018-09-28T09:33:14.224Z,13.60
2018-09-28T09:34:17.777Z,13.60
2018-09-28T09:35:21.338Z,13.60
2018-09-28T09:36:24.957Z,13.60
2018-09-28T09:37:28.503Z,13.60
2018-09-28T09:38:32.076Z,13.60
2018-09-28T09:40:44.204Z,13.60
2018-09-28T09:41:47.686Z,13.60
2018-09-28T09:42:51.213Z,13.70
2018-09-28T09:43:54.783Z,13.70
2018-09-28T09:44:58.333Z,13.80
2018-09-28T09:46:01.830Z,13.80
2018-09-28T09:47:05.430Z,13.80
2018-09-28T09:48:08.944Z,13.80
2018-09-28T09:49:12.510Z,13.90
2018-09-28T09:50:16.042Z,14.00
2018-09-28T09:51:19.681Z,14.00
2018-09-28T09:52:23.163Z,14.10
2018-09-28T09:53:26.659Z,14.10
2018-09-28T09:54:30.183Z,14.20
2018-09-28T09:55:33.784Z,14.30
2018-09-28T09:56:37.466Z,14.40
2018-09-28T09:57:41.113Z,14.40
2018-09-28T09:58:44.692Z,14.60
2018-09-28T09:59:48.282Z,14.70
2018-09-28T10:00:57.080Z,14.80
2018-09-28T10:02:05.975Z,14.80
2018-09-28T10:03:14.933Z,14.90
2018-09-28T10:04:18.492Z,15.00
2018-09-28T10:05:22.027Z,15.10
2018-09-28T10:06:25.579Z,15.10
2018-09-28T10:07:29.111Z,15.30
2018-09-28T10:08:32.693Z,15.50
2018-09-28T10:09:36.322Z,15.90
2018-09-28T10:10:39.925Z,16.00
2018-09-28T10:11:43.502Z,16.20
2018-09-28T10:12:47.138Z,16.40
2018-09-28T10:13:51.852Z,16.80
2018-09-28T10:14:55.379Z,17.40
2018-09-28T10:15:58.935Z,18.20
2018-09-28T10:17:02.517Z,18.60
2018-09-28T10:18:06.143Z,18.80
2018-09-28T10:19:09.748Z,18.80
2018-09-28T10:20:13.333Z,18.90
2018-09-28T10:21:16.956Z,18.90
2018-09-28T10:22:20.587Z,18.80
2018-09-28T10:23:24.588Z,18.50
2018-09-28T10:24:28.600Z,18.20
2018-09-28T10:25:32.152Z,17.90
2018-09-28T10:26:35.799Z,17.70
2018-09-28T10:27:39.420Z,17.40
2018-09-28T10:28:43.031Z,17.20
2018-09-28T10:29:46.493Z,17.00
2018-09-28T10:30:50.158Z,16.80
2018-09-28T10:31:53.857Z,16.60
2018-09-28T10:32:57.418Z,16.40
2018-09-28T10:34:01.018Z,16.20
2018-09-28T10:35:04.710Z,16.00
2018-09-28T10:36:08.302Z,16.00
2018-09-28T10:37:11.865Z,16.00
2018-09-28T10:38:15.549Z,16.00
2018-09-28T10:39:19.085Z,15.90
2018-09-28T10:40:22.738Z,15.80
2018-09-28T10:41:26.199Z,15.70
2018-09-28T10:42:29.726Z,15.70
2018-09-28T10:43:33.427Z,15.70
2018-09-28T10:44:37.160Z,15.60
2018-09-28T10:45:40.890Z,15.50
2018-09-28T10:46:44.532Z,15.30
2018-09-28T10:47:48.114Z,15.30
2018-09-28T10:48:51.712Z,15.30
2018-09-28T10:49:55.514Z,15.30
2018-09-28T10:50:59.970Z,15.20
2018-09-28T10:52:03.636Z,15.30
2018-09-28T10:53:07.890Z,15.40
2018-09-28T10:54:13.106Z,15.50
2018-09-28T10:55:16.823Z,15.40
2018-09-28T10:56:20.415Z,15.50
2018-09-28T10:57:24.044Z,15.50
2018-09-28T10:58:27.615Z,15.50
2018-09-28T10:59:31.159Z,15.60
2018-09-28T11:00:34.718Z,15.50
2018-09-28T11:01:38.645Z,15.50
2018-09-28T11:02:42.211Z,15.40
2018-09-28T11:03:46.291Z,15.30
2018-09-28T11:04:49.796Z,15.30
2018-09-28T11:05:53.340Z,15.40
2018-09-28T11:06:56.903Z,15.40
2018-09-28T11:08:00.434Z,15.40
2018-09-28T11:09:05.400Z,15.50
2018-09-28T11:10:09.047Z,15.60
2018-09-28T11:11:12.646Z,15.60
2018-09-28T11:12:16.200Z,15.60
2018-09-28T11:13:19.746Z,15.70
2018-09-28T11:14:23.309Z,15.80
2018-09-28T11:15:26.967Z,15.70
2018-09-28T11:16:30.673Z,15.80
2018-09-28T11:17:34.235Z,15.90
2018-09-28T11:18:37.881Z,15.90
2018-09-28T11:19:41.450Z,15.70
2018-09-28T11:20:45.241Z,15.70
2018-09-28T11:21:48.847Z,15.60
2018-09-28T11:22:52.536Z,15.60
2018-09-28T11:23:56.110Z,15.50
2018-09-28T11:24:59.661Z,15.50
2018-09-28T11:26:03.256Z,15.60
2018-09-28T11:27:07.108Z,15.70
2018-09-28T11:28:10.671Z,15.70
2018-09-28T11:29:15.076Z,15.80
2018-09-28T11:30:18.743Z,15.90
2018-09-28T11:31:22.414Z,15.90
2018-09-28T11:32:26.151Z,15.80
2018-09-28T11:33:29.768Z,15.90
2018-09-28T11:34:33.378Z,15.90
2018-09-28T11:35:37.008Z,15.90
2018-09-28T11:36:40.548Z,16.00
2018-09-28T11:37:44.182Z,16.10
2018-09-28T11:38:47.743Z,16.10
2018-09-28T11:39:51.622Z,16.10
2018-09-28T11:40:55.125Z,16.20
2018-09-28T11:41:58.796Z,16.20
2018-09-28T11:43:02.418Z,16.40
2018-09-28T11:44:05.973Z,16.50
2018-09-28T11:45:09.626Z,16.40
2018-09-28T11:46:13.167Z,16.50
2018-09-28T11:47:16.936Z,16.50
2018-09-28T11:48:20.474Z,16.50
2018-09-28T11:49:24.187Z,16.60
2018-09-28T11:50:27.756Z,16.70
2018-09-28T11:51:31.329Z,16.60
2018-09-28T11:52:34.928Z,16.50
2018-09-28T11:53:38.445Z,16.60
2018-09-28T11:54:42.024Z,16.50
2018-09-28T11:55:45.567Z,16.50
2018-09-28T11:56:49.179Z,16.40
2018-09-28T11:57:52.839Z,16.50
2018-09-28T11:58:56.349Z,16.30
2018-09-28T11:59:59.919Z,16.30
2018-09-28T12:01:04.050Z,16.40
2018-09-28T12:02:08.283Z,16.30
2018-09-28T12:03:12.091Z,16.30
2018-09-28T12:04:15.691Z,16.30
2018-09-28T12:05:19.171Z,16.30
2018-09-28T12:06:22.827Z,16.20
2018-09-28T12:07:26.379Z,16.10
2018-09-28T12:08:29.934Z,16.10
2018-09-28T12:09:33.588Z,16.00
2018-09-28T12:10:37.030Z,16.00
2018-09-28T12:11:40.598Z,16.10
2018-09-28T12:12:44.325Z,16.10
2018-09-28T12:13:47.806Z,16.20
2018-09-28T12:14:51.407Z,16.10
2018-09-28T12:15:54.923Z,16.10
2018-09-28T12:16:58.423Z,16.20
2018-09-28T12:18:02.032Z,16.30
2018-09-28T12:19:05.754Z,16.50
2018-09-28T12:20:09.866Z,16.60
2018-09-28T12:21:13.488Z,16.60
2018-09-28T12:22:16.991Z,16.50
2018-09-28T12:23:20.515Z,16.40
2018-09-28T12:24:24.071Z,16.40
2018-09-28T12:25:27.609Z,16.60
2018-09-28T12:26:31.445Z,16.70
2018-09-28T12:27:34.995Z,16.60
2018-09-28T12:28:38.501Z,16.60
2018-09-28T12:29:42.014Z,16.70
2018-09-28T12:30:45.642Z,16.70
2018-09-28T12:31:49.264Z,16.80
2018-09-28T12:32:52.879Z,16.70
2018-09-28T12:33:56.518Z,16.70
2018-09-28T12:35:00.087Z,16.70
2018-09-28T12:36:04.122Z,16.70
2018-09-28T12:37:07.687Z,16.70
2018-09-28T12:38:12.635Z,16.70
2018-09-28T12:39:16.311Z,16.70
2018-09-28T12:40:19.796Z,16.70
2018-09-28T12:41:23.614Z,16.70
2018-09-28T12:42:27.444Z,16.60
2018-09-28T12:43:35.032Z,16.60
2018-09-28T12:44:34.702Z,16.50
2018-09-28T12:45:38.417Z,16.50
2018-09-28T12:46:41.969Z,16.40
2018-09-28T12:47:45.527Z,16.40
2018-09-28T12:48:49.467Z,16.40
2018-09-28T12:49:53.024Z,16.40
2018-09-28T12:50:56.719Z,16.50
2018-09-28T12:52:00.347Z,16.70
2018-09-28T12:53:03.951Z,16.80
2018-09-28T12:54:07.815Z,16.90
2018-09-28T12:55:11.678Z,17.00
2018-09-28T12:56:15.246Z,17.00
2018-09-28T12:57:18.863Z,17.10
2018-09-28T12:58:22.454Z,17.20
2018-09-28T12:59:26.040Z,17.20
2018-09-28T13:00:29.709Z,17.40
2018-09-28T13:01:33.267Z,17.40
2018-09-28T13:02:36.945Z,17.40
2018-09-28T13:03:40.681Z,17.40
2018-09-28T13:04:44.279Z,17.50
2018-09-28T13:05:47.887Z,17.50
2018-09-28T13:06:51.464Z,17.60
2018-09-28T13:07:55.196Z,17.60
2018-09-28T13:08:59.274Z,17.70
2018-09-28T13:10:03.593Z,17.80
2018-09-28T13:11:08.679Z,17.80
2018-09-28T13:12:12.831Z,18.00
2018-09-28T13:13:17.350Z,18.10
2018-09-28T13:14:21.080Z,18.30
2018-09-28T13:15:24.811Z,18.40
2018-09-28T13:16:28.366Z,18.50
2018-09-28T13:17:32.175Z,18.60
2018-09-28T13:18:35.960Z,18.60
2018-09-28T13:19:39.688Z,18.70
2018-09-28T13:20:43.506Z,18.70
2018-09-28T13:21:47.241Z,18.70
2018-09-28T13:22:51.000Z,18.80
2018-09-28T13:23:55.339Z,18.60
2018-09-28T13:24:58.979Z,18.70
2018-09-28T13:26:02.630Z,18.60
2018-09-28T13:27:06.601Z,18.50
2018-09-28T13:28:11.138Z,18.50
2018-09-28T13:29:15.433Z,18.50
2018-09-28T13:30:19.139Z,18.40
2018-09-28T13:31:22.736Z,18.20
2018-09-28T13:32:26.618Z,18.30
2018-09-28T13:33:30.106Z,18.30
2018-09-28T13:34:33.708Z,18.50
2018-09-28T13:35:37.308Z,18.40
2018-09-28T13:36:40.993Z,18.50
2018-09-28T13:37:44.563Z,18.50
2018-09-28T13:38:48.267Z,18.40
2018-09-28T13:39:54.467Z,18.40
2018-09-28T13:40:58.256Z,18.30
2018-09-28T13:42:02.053Z,18.20
2018-09-28T13:43:05.825Z,18.20
2018-09-28T13:44:09.563Z,18.00
2018-09-28T13:45:13.475Z,17.90